createdAt,value
2019-05-19T00:01:05.253Z,11.3
2019-05-19T00:06:38.530Z,11.2
2019-05-19T00:12:10.639Z,11.3
2019-05-19T00:17:43.361Z,11.2
2019-05-19T00:23:11.015Z,11.1
2019-05-19T00:28:43.761Z,11.2
2019-05-19T00:34:16.399Z,11.2
2019-05-19T00:39:49.121Z,11.1
2019-05-19T00:45:22.213Z,11.1
2019-05-19T00:50:54.876Z,11.2
2019-05-19T00:56:27.505Z,11.2
2019-05-19T01:02:00.412Z,11.4
2019-05-19T01:07:33.859Z,11.6
2019-05-19T01:13:07.267Z,11.1
2019-05-19T01:18:40.619Z,11.1
2019-05-19T01:24:13.229Z,11.2
2019-05-19T01:29:46.179Z,11
2019-05-19T01:35:19.178Z,10.9
2019-05-19T01:40:51.787Z,10.9
2019-05-19T01:46:24.459Z,10.9
2019-05-19T01:51:57.068Z,10.8
2019-05-19T01:57:30.141Z,10.8
2019-05-19T02:03:03.633Z,10.7
2019-05-19T02:08:36.778Z,10.9
2019-05-19T02:14:10.300Z,10.8
2019-05-19T02:19:43.700Z,10.7
2019-05-19T02:25:17.150Z,10.7
2019-05-19T02:30:50.629Z,10.7
2019-05-19T02:36:24.138Z,10.7
2019-05-19T02:41:57.567Z,10.8
2019-05-19T02:47:30.417Z,10.7
2019-05-19T02:53:03.039Z,10.6
2019-05-19T02:58:35.885Z,10.6
2019-05-19T03:04:08.290Z,10.6
2019-05-19T03:09:40.927Z,10.6
2019-05-19T03:15:13.458Z,10.5
2019-05-19T03:20:46.107Z,10.5
2019-05-19T03:26:18.580Z,10.5
2019-05-19T03:31:51.265Z,10.5
2019-05-19T03:37:23.876Z,10.5
2019-05-19T03:42:56.379Z,10.5
2019-05-19T03:48:28.893Z,10.5
2019-05-19T03:54:01.548Z,10.5
2019-05-19T03:59:34.040Z,10.4
2019-05-19T04:05:06.696Z,10.4
2019-05-19T04:10:39.200Z,10.4
2019-05-19T04:16:11.759Z,10.5
2019-05-19T04:21:48.543Z,10.6
2019-05-19T04:27:16.912Z,10.6
2019-05-19T04:32:49.528Z,10.8
2019-05-19T04:38:22.171Z,10.7
2019-05-19T04:43:54.799Z,10.7
2019-05-19T04:49:27.398Z,10.7
2019-05-19T04:55:00.009Z,10.7
2019-05-19T05:00:32.678Z,10.7
2019-05-19T05:06:05.344Z,10.7
2019-05-19T05:11:38.007Z,10.8
2019-05-19T05:17:04.661Z,10.8
2019-05-19T05:22:37.307Z,10.9
2019-05-19T05:28:09.982Z,11
2019-05-19T05:33:42.738Z,11.1
2019-05-19T05:39:15.426Z,11
2019-05-19T05:44:48.179Z,11.3
2019-05-19T05:50:20.918Z,11.2
2019-05-19T05:55:53.743Z,11.3
2019-05-19T06:01:26.550Z,11.3
2019-05-19T06:06:59.297Z,11.5
2019-05-19T06:12:32.168Z,11.4
2019-05-19T06:18:04.949Z,11.5
2019-05-19T06:23:37.787Z,11.6
2019-05-19T06:29:10.705Z,11.6
2019-05-19T06:34:43.543Z,11.7
2019-05-19T06:40:16.489Z,11.9
2019-05-19T06:45:49.420Z,12.2
2019-05-19T06:51:22.332Z,12.1
2019-05-19T06:56:55.384Z,12.3
2019-05-19T07:02:29.789Z,12.4
2019-05-19T07:08:01.544Z,12.8
2019-05-19T07:13:34.783Z,12.2
2019-05-19T07:19:07.895Z,12.5
2019-05-19T07:24:41.721Z,12.9
2019-05-19T07:30:15.478Z,13
2019-05-19T07:35:49.587Z,12.9
2019-05-19T07:41:23.745Z,13.1
2019-05-19T07:46:57.599Z,13.8
2019-05-19T07:52:31.763Z,14.5
2019-05-19T07:58:06.264Z,14.7
2019-05-19T08:03:41.119Z,13.9
2019-05-19T08:09:15.800Z,15.9
2019-05-19T08:14:50.414Z,16.4
2019-05-19T08:20:25.379Z,15.7
2019-05-19T08:26:00.374Z,15.1
2019-05-19T08:31:35.203Z,14.9
2019-05-19T08:37:09.911Z,14.8
2019-05-19T08:42:43.937Z,15.1
2019-05-19T08:48:18.110Z,14.9
2019-05-19T08:53:51.794Z,14.2
2019-05-19T08:59:25.319Z,14.1
2019-05-19T09:04:59.245Z,12.9
2019-05-19T09:10:33.377Z,12.8
2019-05-19T09:16:07.383Z,12.6
2019-05-19T09:21:41.289Z,12.6
2019-05-19T09:27:15.106Z,12.7
2019-05-19T09:32:48.973Z,12.7
2019-05-19T09:38:22.913Z,12.8
2019-05-19T09:43:57.017Z,13.3
2019-05-19T09:49:31.147Z,13.6
2019-05-19T09:55:05.519Z,13.8
2019-05-19T10:00:39.921Z,13.2
2019-05-19T10:06:14.364Z,13.3
2019-05-19T10:11:48.707Z,13.6
2019-05-19T10:17:23.056Z,13.8
2019-05-19T10:22:57.300Z,13.6
2019-05-19T10:28:31.764Z,13.9
2019-05-19T10:34:05.896Z,14.2
2019-05-19T10:39:40.311Z,14.6
2019-05-19T10:45:14.814Z,14.3
2019-05-19T10:50:49.337Z,14.7
2019-05-19T10:56:28.522Z,14.5
2019-05-19T11:02:03.290Z,14.4
2019-05-19T11:07:38.155Z,14.5
2019-05-19T11:13:12.988Z,15.9
2019-05-19T11:18:47.653Z,15.3
2019-05-19T11:24:22.494Z,14.7
2019-05-19T11:29:57.123Z,14.6
2019-05-19T11:35:31.624Z,14.4
2019-05-19T11:41:05.945Z,14.3
2019-05-19T11:46:40.180Z,14.2
2019-05-19T11:52:14.376Z,14.2
2019-05-19T11:57:48.599Z,14.4
2019-05-19T12:03:22.837Z,14.6
2019-05-19T12:08:58.134Z,14.9
2019-05-19T12:14:31.605Z,14.9
2019-05-19T12:20:06.185Z,15.2
2019-05-19T12:25:40.817Z,15.2
2019-05-19T12:31:15.490Z,15.2
2019-05-19T12:36:49.848Z,15.4
2019-05-19T12:42:24.281Z,15.5
2019-05-19T12:47:58.829Z,15.3
2019-05-19T12:53:33.479Z,15.4
2019-05-19T12:59:08.021Z,15.3
2019-05-19T13:04:42.744Z,15.3
2019-05-19T13:10:17.459Z,15.2
2019-05-19T13:15:51.867Z,15.3
2019-05-19T13:21:26.541Z,15.5
2019-05-19T13:27:01.109Z,15.4
2019-05-19T13:32:35.644Z,15.4
2019-05-19T13:38:10.368Z,15.7
2019-05-19T13:43:45.139Z,15.8
2019-05-19T13:49:20.088Z,16.2
2019-05-19T13:54:55.227Z,16.2
2019-05-19T14:00:30.422Z,16.7
2019-05-19T14:06:06.003Z,17
2019-05-19T14:11:41.879Z,17.5
2019-05-19T14:17:17.956Z,18.1
2019-05-19T14:22:54.009Z,17.5
2019-05-19T14:28:30.272Z,17.3
2019-05-19T14:34:06.206Z,17.7
2019-05-19T14:39:42.174Z,17.1
2019-05-19T14:45:17.978Z,17.9
2019-05-19T14:50:54.051Z,17.2
2019-05-19T14:56:30.123Z,17.3
2019-05-19T15:02:05.774Z,16.6
2019-05-19T15:07:41.137Z,16.4
2019-05-19T15:13:16.489Z,16.2
2019-05-19T15:18:51.445Z,16
2019-05-19T15:24:26.438Z,16
2019-05-19T15:30:12.164Z,16.2
2019-05-19T15:35:36.300Z,16.1
2019-05-19T15:41:10.952Z,15.9
2019-05-19T15:46:45.523Z,16
2019-05-19T15:52:19.955Z,16.4
2019-05-19T15:57:54.553Z,15.7
2019-05-19T16:03:29.087Z,15.4
2019-05-19T16:09:03.626Z,15.7
2019-05-19T16:14:38.060Z,15.3
2019-05-19T16:20:12.613Z,15.4
2019-05-19T16:25:47.256Z,15.9
2019-05-19T16:31:22.231Z,16.5
2019-05-19T16:36:57.585Z,16.4
2019-05-19T16:42:33.224Z,16.6
2019-05-19T16:48:09.138Z,16.4
2019-05-19T16:53:44.804Z,17.5
2019-05-19T16:59:20.650Z,16.9
2019-05-19T17:04:56.492Z,16.5
2019-05-19T17:10:32.380Z,16.8
2019-05-19T17:16:08.155Z,16.5
2019-05-19T17:21:43.585Z,15.8
2019-05-19T17:27:18.746Z,15.8
2019-05-19T17:32:53.424Z,15.7
2019-05-19T17:38:28.263Z,16
2019-05-19T17:44:03.170Z,15.6
2019-05-19T17:49:38.079Z,16
2019-05-19T17:55:13.063Z,15.4
2019-05-19T18:00:48.724Z,15.3
2019-05-19T18:06:22.643Z,15.2
2019-05-19T18:11:57.223Z,15.1
2019-05-19T18:17:31.593Z,15
2019-05-19T18:23:06.053Z,15
2019-05-19T18:28:40.380Z,14.8
2019-05-19T18:34:14.709Z,14.7
2019-05-19T18:39:48.692Z,14.9
2019-05-19T18:45:22.226Z,14.9
2019-05-19T18:50:55.872Z,14.6
2019-05-19T18:56:29.999Z,14.4
2019-05-19T19:02:04.079Z,14.1
2019-05-19T19:07:38.101Z,14.2
2019-05-19T19:13:12.012Z,14.2
2019-05-19T19:18:45.577Z,14
2019-05-19T19:24:19.274Z,14.3
2019-05-19T19:30:02.805Z,14.2
2019-05-19T19:35:36.832Z,14.1
2019-05-19T19:41:01.133Z,14
2019-05-19T19:46:34.965Z,14
2019-05-19T19:52:08.313Z,14
2019-05-19T19:57:42.172Z,14.1
2019-05-19T20:03:15.889Z,13.9
2019-05-19T20:08:49.823Z,13.8
2019-05-19T20:14:23.615Z,13.9
2019-05-19T20:19:56.927Z,14.1
2019-05-19T20:25:29.970Z,14.1
2019-05-19T20:31:03.003Z,14.3
2019-05-19T20:36:36.091Z,14
2019-05-19T20:42:09.192Z,13.6
2019-05-19T20:47:42.081Z,13.6
2019-05-19T20:53:15.097Z,13.5
2019-05-19T20:58:48.082Z,13.1
2019-05-19T21:04:20.987Z,13.1
2019-05-19T21:09:53.790Z,12.9
2019-05-19T21:15:26.762Z,12.6
2019-05-19T21:20:59.604Z,12.6
2019-05-19T21:26:32.388Z,13.2
2019-05-19T21:32:05.365Z,13.1
2019-05-19T21:37:38.179Z,13.1
2019-05-19T21:43:10.986Z,13
2019-05-19T21:48:43.901Z,12.8
2019-05-19T21:54:16.742Z,13
2019-05-19T21:59:49.672Z,12.8
2019-05-19T22:05:22.520Z,12.6
2019-05-19T22:10:55.455Z,12.5
2019-05-19T22:16:28.240Z,11.9
2019-05-19T22:22:01.069Z,12.3
2019-05-19T22:27:33.890Z,12.5
2019-05-19T22:33:06.755Z,12.2
2019-05-19T22:38:39.560Z,12.2
2019-05-19T22:44:12.298Z,12.3
2019-05-19T22:49:45.117Z,12.5
2019-05-19T22:55:17.949Z,12.6
2019-05-19T23:00:50.738Z,12.6
2019-05-19T23:06:23.564Z,12.5
2019-05-19T23:11:56.445Z,12.5
2019-05-19T23:17:29.257Z,12.6
2019-05-19T23:23:02.144Z,12.6
2019-05-19T23:28:35.010Z,12.6
2019-05-19T23:34:07.751Z,12.6
2019-05-19T23:39:40.636Z,12.5
2019-05-19T23:45:13.470Z,12.1
2019-05-19T23:50:46.299Z,12.1
2019-05-19T23:56:19.054Z,12.1
